Time;durP1;ratioP1;P1;durP2;ratioP2;P2;SDS_P1;SDS_P2;PMS_P1;PMS_P2;Temp;Humidity;BMP_temperature;BMP_pressure;BME280_temperature;BME280_humidity;BME280_pressure;Samples;Min_cycle;Max_cycle;Signal;HPM_P1;HPM_P2
2022/07/11 00:00:14;;;;;;;3.72;1.27;;;15.40;99.90;;;;;;20826543;28;20033;-76
2022/07/11 00:10:15;;;;;;;5.47;1.38;;;14.90;99.90;;;;;;20826053;28;20041;-76
2022/07/11 00:20:15;;;;;;;3.37;1.40;;;14.70;99.90;;;;;;20825456;28;20037;-75
2022/07/11 00:30:18;;;;;;;2.80;1.20;;;14.90;99.90;;;;;;20832669;28;20029;-76
2022/07/11 00:40:19;;;;;;;3.72;1.42;;;14.70;99.90;;;;;;20824829;28;20030;-76
2022/07/11 00:50:20;;;;;;;4.53;1.40;;;14.80;99.90;;;;;;20824459;28;20029;-75
2022/07/11 01:00:21;;;;;;;2.30;1.07;;;14.80;99.90;;;;;;20836051;28;20409;-76
2022/07/11 01:10:23;;;;;;;5.40;1.50;;;14.80;99.90;;;;;;20839411;28;20028;-75
2022/07/11 01:20:24;;;;;;;1.83;1.13;;;14.70;99.90;;;;;;20838439;28;20032;-76
2022/07/11 01:30:28;;;;;;;1.97;1.20;;;14.30;99.90;;;;;;20837748;28;20033;-75
2022/07/11 01:40:30;;;;;;;3.72;1.10;;;14.00;99.90;;;;;;20837144;28;20052;-76
2022/07/11 01:50:31;;;;;;;;;;;14.20;99.90;;;;;;20836782;28;20045;-75
2022/07/11 02:00:31;;;;;;;4.32;1.45;;;14.10;99.90;;;;;;20835308;28;20316;-75
2022/07/11 02:10:32;;;;;;;2.90;1.70;;;14.00;99.90;;;;;;20833618;28;20036;-75
2022/07/11 02:20:33;;;;;;;6.43;2.10;;;14.00;99.90;;;;;;20834203;28;20417;-75
2022/07/11 02:30:35;;;;;;;4.43;1.90;;;13.70;99.90;;;;;;20847732;28;20029;-75
2022/07/11 02:40:36;;;;;;;5.32;1.63;;;13.50;99.90;;;;;;20834331;28;20037;-75
2022/07/11 02:50:37;;;;;;;5.33;1.70;;;13.50;99.90;;;;;;20831888;28;20037;-75
2022/07/11 03:00:38;;;;;;;3.53;1.60;;;13.50;99.90;;;;;;20830671;28;20041;-76
2022/07/11 03:10:38;;;;;;;2.40;1.73;;;13.40;99.90;;;;;;20829862;28;20385;-75
2022/07/11 03:20:39;;;;;;;2.50;1.47;;;13.30;99.90;;;;;;20828878;28;20065;-76
2022/07/11 03:30:40;;;;;;;4.97;1.60;;;13.20;99.90;;;;;;20828305;28;20029;-75
2022/07/11 04:12:49;;;;;;;3.55;1.48;;;13.40;99.90;;;;;;21077670;22;20044;-81
2022/07/11 04:22:50;;;;;;;2.83;1.60;;;13.50;99.90;;;;;;21008964;28;20115;-83
2022/07/11 04:32:51;;;;;;;3.50;1.60;;;13.40;99.90;;;;;;21017312;28;20463;-81
2022/07/11 04:42:52;;;;;;;3.60;2.03;;;13.60;99.90;;;;;;21027205;28;20067;-83
2022/07/11 04:52:53;;;;;;;2.20;1.70;;;13.60;99.90;;;;;;21022035;28;20041;-81
2022/07/11 05:02:55;;;;;;;4.37;1.50;;;13.70;99.90;;;;;;21018321;28;20045;-83
2022/07/11 05:12:55;;;;;;;;;;;13.80;99.90;;;;;;20965835;28;20125;-82
2022/07/11 05:22:57;;;;;;;1.73;1.47;;;14.10;99.90;;;;;;20940466;28;19966;-82
2022/07/11 05:32:58;;;;;;;2.90;1.70;;;14.30;99.90;;;;;;20944261;28;20041;-81
2022/07/11 05:43:00;;;;;;;3.13;1.80;;;14.40;99.90;;;;;;20939270;28;20044;-80
2022/07/11 05:53:02;;;;;;;3.22;1.60;;;14.70;99.90;;;;;;20939412;28;20444;-83
2022/07/11 06:03:03;;;;;;;4.45;1.52;;;15.00;99.90;;;;;;20922964;28;20060;-82
2022/07/11 06:13:04;;;;;;;6.67;2.03;;;15.60;99.90;;;;;;20899053;28;20045;-83
2022/07/11 06:23:05;;;;;;;4.17;1.43;;;16.10;99.90;;;;;;20914475;28;20041;-82
2022/07/11 06:33:06;;;;;;;4.53;1.40;;;16.50;99.90;;;;;;20914715;28;20037;-83
2022/07/11 06:43:11;;;;;;;7.53;1.13;;;17.30;99.90;;;;;;20912804;28;20605;-82
2022/07/11 06:53:11;;;;;;;2.97;1.23;;;17.80;99.90;;;;;;20911611;28;20041;-82
2022/07/11 07:03:12;;;;;;;6.27;1.00;;;18.00;99.90;;;;;;20910611;28;20514;-82
2022/07/11 07:13:13;;;;;;;4.40;1.30;;;18.50;99.90;;;;;;20911765;28;20162;-83
2022/07/11 07:23:14;;;;;;;3.23;0.87;;;19.30;99.90;;;;;;20912182;28;20041;-84
2022/07/11 07:33:15;;;;;;;5.10;1.10;;;19.50;99.90;;;;;;20912884;28;20091;-83
2022/07/11 07:43:16;;;;;;;2.97;0.90;;;19.90;99.90;;;;;;20910833;28;20068;-82
2022/07/11 07:53:16;;;;;;;3.70;0.80;;;20.60;99.90;;;;;;20911745;28;20051;-82
2022/07/11 08:03:17;;;;;;;1.67;0.77;;;21.00;99.90;;;;;;20910205;28;20040;-82
2022/07/11 08:13:19;;;;;;;2.13;0.77;;;21.10;99.90;;;;;;20909054;28;20041;-85
2022/07/11 08:23:20;;;;;;;2.63;0.88;;;21.70;99.90;;;;;;20908676;28;20029;-82
2022/07/11 08:33:21;;;;;;;2.27;0.70;;;22.30;99.90;;;;;;20906570;28;20036;-84
2022/07/11 08:43:29;;;;;;;2.13;0.60;;;22.60;99.90;;;;;;20889852;28;20044;-83
2022/07/11 08:53:32;;;;;;;4.55;0.60;;;22.90;99.90;;;;;;20906395;28;20030;-83
2022/07/11 09:03:35;;;;;;;6.28;0.70;;;23.10;99.90;;;;;;20905073;28;20128;-83
2022/07/11 09:13:36;;;;;;;2.72;0.80;;;23.70;99.90;;;;;;20908579;28;20463;-82
2022/07/11 09:34:01;;;;;;;2.43;0.70;;;24.10;99.90;;;;;;20919528;28;20499;-85
2022/07/11 09:44:12;;;;;;;11.73;0.50;;;24.90;99.90;;;;;;20918781;28;20102;-83
2022/07/11 09:54:13;;;;;;;1.07;0.50;;;25.40;99.90;;;;;;20900033;28;20037;-83
2022/07/11 10:04:13;;;;;;;;;;;25.50;99.90;;;;;;20918594;28;20136;-84
2022/07/11 10:14:15;;;;;;;1.83;0.50;;;25.80;99.90;;;;;;20901066;28;19923;-86
2022/07/11 10:24:35;;;;;;;1.75;0.35;;;25.50;99.90;;;;;;20916387;28;20124;-85
2022/07/11 10:34:37;;;;;;;1.57;0.30;;;26.30;99.90;;;;;;20915806;28;20036;-85
2022/07/11 10:44:48;;;;;;;0.43;0.22;;;26.90;99.90;;;;;;20915510;28;20132;-84
2022/07/11 10:54:55;;;;;;;1.17;0.38;;;27.00;99.90;;;;;;20898487;28;20071;-84
2022/07/11 11:04:58;;;;;;;0.47;0.28;;;27.10;99.90;;;;;;20899173;28;20041;-82
2022/07/11 11:15:36;;;;;;;0.80;0.20;;;27.60;99.90;;;;;;20914446;28;20052;-85
2022/07/11 11:25:37;;;;;;;2.00;0.20;;;28.20;99.90;;;;;;20916658;28;20510;-85
2022/07/11 11:35:39;;;;;;;1.23;0.30;;;27.90;99.90;;;;;;20895722;28;20041;-83
2022/07/11 11:45:50;;;;;;;1.55;0.40;;;28.20;99.90;;;;;;20911803;28;20041;-84
2022/07/11 11:55:50;;;;;;;0.98;0.20;;;28.40;99.90;;;;;;20909184;28;20051;-84
2022/07/11 12:05:56;;;;;;;2.10;0.98;;;28.70;99.90;;;;;;20918934;28;20029;-84
2022/07/11 12:26:16;;;;;;;0.22;0.13;;;29.30;99.90;;;;;;20920499;28;20037;-83
2022/07/11 12:36:17;;;;;;;2.30;0.20;;;29.10;99.90;;;;;;20920017;28;20072;-82
2022/07/11 12:46:18;;;;;;;0.10;0.10;;;29.30;99.90;;;;;;20921492;28;20040;-82
2022/07/11 12:56:22;;;;;;;0.65;0.20;;;29.50;99.90;;;;;;20935662;28;20527;-82
2022/07/11 13:16:42;;;;;;;0.30;0.20;;;29.50;99.90;;;;;;20937894;28;20040;-82
2022/07/11 13:26:43;;;;;;;6.90;1.02;;;29.20;99.90;;;;;;20937173;28;20029;-82
2022/07/11 13:36:44;;;;;;;5.43;0.40;;;29.30;99.90;;;;;;20935883;28;20040;-83
2022/07/11 13:46:45;;;;;;;0.20;0.10;;;29.90;99.60;;;;;;20931763;28;20120;-82
2022/07/11 13:56:46;;;;;;;1.77;0.30;;;29.70;99.90;;;;;;20981595;28;20036;-83
2022/07/11 14:06:47;;;;;;;0.45;0.20;;;29.40;99.90;;;;;;20997088;28;20701;-83
2022/07/11 14:16:48;;;;;;;0.57;0.30;;;29.50;99.90;;;;;;20920077;28;20045;-83
2022/07/11 14:26:49;;;;;;;0.98;0.15;;;29.40;99.90;;;;;;20919822;28;20139;-83
2022/07/11 14:36:50;;;;;;;2.28;0.22;;;30.10;99.20;;;;;;20916577;28;20060;-83
2022/07/11 14:46:51;;;;;;;1.30;0.20;;;29.50;99.90;;;;;;20929936;28;20332;-84
2022/07/11 14:56:52;;;;;;;0.75;0.30;;;29.90;99.90;;;;;;20942641;28;20472;-83
2022/07/11 15:17:12;;;;;;;5.25;0.40;;;28.80;99.80;;;;;;20968994;28;20068;-83
2022/07/11 15:27:13;;;;;;;1.85;0.35;;;29.00;99.90;;;;;;20939786;28;20040;-82
2022/07/11 15:37:14;;;;;;;0.40;0.30;;;28.60;99.90;;;;;;20933312;28;20083;-82
2022/07/11 15:47:15;;;;;;;1.33;0.40;;;28.90;99.90;;;;;;20923148;28;20126;-84
2022/07/11 15:57:16;;;;;;;0.40;0.35;;;28.70;99.90;;;;;;20940393;28;20041;-82
2022/07/11 16:07:17;;;;;;;1.50;0.95;;;28.40;99.90;;;;;;20951631;28;20040;-82
2022/07/11 16:17:19;;;;;;;2.28;0.50;;;28.20;99.90;;;;;;21010051;28;20060;-82
2022/07/11 16:27:19;;;;;;;1.35;0.30;;;28.10;99.90;;;;;;21024324;28;20060;-82
2022/07/11 16:37:20;;;;;;;1.95;0.38;;;27.60;99.90;;;;;;21003058;28;20043;-83
2022/07/11 16:47:21;;;;;;;2.05;0.32;;;27.20;99.90;;;;;;21005434;28;20045;-82
2022/07/11 16:57:22;;;;;;;1.27;0.90;;;26.80;99.90;;;;;;20991497;28;20030;-83
2022/07/11 17:07:23;;;;;;;1.17;0.30;;;26.90;99.90;;;;;;20933016;28;20060;-82
2022/07/11 17:17:24;;;;;;;1.10;0.35;;;26.80;99.90;;;;;;20919573;28;20056;-82
2022/07/11 17:27:26;;;;;;;0.77;0.40;;;26.90;99.90;;;;;;20921550;28;20033;-81
2022/07/11 17:37:27;;;;;;;1.98;0.47;;;26.30;99.90;;;;;;20928603;28;20428;-83
2022/07/11 17:47:28;;;;;;;2.25;0.50;;;25.80;99.90;;;;;;20917943;28;20411;-82
2022/07/11 17:57:29;;;;;;;1.80;0.70;;;25.60;99.90;;;;;;20983994;23;20072;-78
2022/07/11 18:07:30;;;;;;;2.78;0.50;;;25.20;99.90;;;;;;20976199;28;20049;-78
2022/07/11 18:17:31;;;;;;;;;;;25.00;99.90;;;;;;20948273;28;20135;-78
2022/07/11 18:27:32;;;;;;;1.17;0.30;;;24.50;99.90;;;;;;20945446;28;20026;-78
2022/07/11 18:37:33;;;;;;;0.70;0.30;;;23.80;99.90;;;;;;20957073;28;20032;-78
2022/07/11 18:47:33;;;;;;;2.20;0.45;;;23.50;99.90;;;;;;20940128;28;20029;-77
2022/07/11 18:57:34;;;;;;;2.43;0.53;;;23.10;99.90;;;;;;20926257;28;20033;-75
2022/07/11 19:07:36;;;;;;;1.98;0.60;;;22.80;99.90;;;;;;20851528;28;20116;-75
2022/07/11 19:17:37;;;;;;;2.00;0.60;;;22.30;99.90;;;;;;20875159;28;20098;-74
2022/07/11 19:27:38;;;;;;;0.83;0.40;;;22.00;99.90;;;;;;20892719;28;20452;-75
2022/07/11 19:37:38;;;;;;;1.67;0.70;;;21.80;99.90;;;;;;20840890;28;20041;-75
2022/07/11 19:47:40;;;;;;;0.40;0.40;;;21.70;99.90;;;;;;20815714;28;20130;-76
2022/07/11 19:57:41;;;;;;;1.77;0.55;;;21.50;99.90;;;;;;20806581;28;20602;-75
2022/07/11 20:07:43;;;;;;;3.00;0.73;;;21.00;99.90;;;;;;20806776;28;20052;-76
2022/07/11 20:17:44;;;;;;;4.05;0.90;;;20.70;99.90;;;;;;20891038;28;20680;-76
2022/07/11 20:27:45;;;;;;;1.07;0.60;;;20.70;99.90;;;;;;20906103;28;20202;-76
2022/07/11 20:37:46;;;;;;;4.47;0.70;;;20.50;99.90;;;;;;20906165;28;20072;-76
2022/07/11 20:47:47;;;;;;;3.30;0.80;;;20.40;99.90;;;;;;20890780;28;20096;-75
2022/07/11 20:57:48;;;;;;;1.37;0.60;;;20.20;99.90;;;;;;20909618;28;20048;-75
2022/07/11 21:07:48;;;;;;;1.03;0.53;;;20.20;99.90;;;;;;20912951;28;20041;-75
2022/07/11 21:17:49;;;;;;;1.47;0.60;;;19.80;99.90;;;;;;20919373;28;20501;-75
2022/07/11 21:27:50;;;;;;;7.07;0.90;;;19.50;99.90;;;;;;20920687;28;20132;-76
2022/07/11 21:37:51;;;;;;;0.83;0.77;;;19.50;99.90;;;;;;20919838;28;20508;-76
2022/07/11 21:47:55;;;;;;;1.30;0.83;;;19.10;99.90;;;;;;20918218;28;20396;-76
2022/07/11 21:57:56;;;;;;;2.55;1.10;;;18.60;99.90;;;;;;20899586;28;20135;-76
2022/07/11 22:07:58;;;;;;;2.03;1.30;;;18.30;99.90;;;;;;20917055;28;20126;-76
2022/07/11 22:17:59;;;;;;;2.97;1.20;;;18.10;99.90;;;;;;20932084;28;20041;-75
2022/07/11 22:28:00;;;;;;;1.70;1.30;;;18.20;99.90;;;;;;20914627;28;20033;-75
2022/07/11 22:38:00;;;;;;;7.97;1.60;;;18.00;99.90;;;;;;20914913;28;20080;-76
2022/07/11 22:48:01;;;;;;;1.83;1.30;;;17.90;99.90;;;;;;20921704;28;20488;-75
2022/07/11 22:58:02;;;;;;;9.57;1.90;;;17.80;99.90;;;;;;20913046;28;20037;-75
2022/07/11 23:08:04;;;;;;;1.60;1.10;;;17.70;99.90;;;;;;20912640;28;20557;-75
2022/07/11 23:18:06;;;;;;;1.88;1.25;;;17.50;99.90;;;;;;20913492;28;20048;-75
2022/07/11 23:28:07;;;;;;;2.53;1.10;;;17.40;99.90;;;;;;20910429;28;20053;-75
2022/07/11 23:38:08;;;;;;;1.40;1.20;;;17.20;99.90;;;;;;20910363;28;20039;-75
2022/07/11 23:48:09;;;;;;;1.97;1.50;;;17.20;99.90;;;;;;20909452;28;20036;-75
2022/07/11 23:58:10;;;;;;;2.30;1.27;;;16.90;99.90;;;;;;20959929;22;20049;-79
